sensor_id;sensor_type;location;lat;lon;timestamp;temperature;humidity
569;DHT22;269;48.884;9.192;2023-04-01T00:00:36;9.10;99.90
569;DHT22;269;48.884;9.192;2023-04-01T00:03:03;9.10;99.90
569;DHT22;269;48.884;9.192;2023-04-01T00:05:30;9.10;99.90
569;DHT22;269;48.884;9.192;2023-04-01T00:07:57;9.10;99.90
569;DHT22;269;48.884;9.192;2023-04-01T00:10:24;9.10;99.90
569;DHT22;269;48.884;9.192;2023-04-01T00:12:51;9.10;99.90
569;DHT22;269;48.884;9.192;2023-04-01T00:15:20;9.10;99.90
569;DHT22;269;48.884;9.192;2023-04-01T00:17:47;9.20;99.90
569;DHT22;269;48.884;9.192;2023-04-01T00:20:15;9.20;99.90
569;DHT22;269;48.884;9.192;2023-04-01T00:22:42;9.20;99.90
569;DHT22;269;48.884;9.192;2023-04-01T00:25:09;9.20;99.90
569;DHT22;269;48.884;9.192;2023-04-01T00:27:37;9.20;99.90
569;DHT22;269;48.884;9.192;2023-04-01T00:30:05;9.20;99.90
569;DHT22;269;48.884;9.192;2023-04-01T00:32:34;9.20;99.90
569;DHT22;269;48.884;9.192;2023-04-01T00:35:02;9.20;99.90
569;DHT22;269;48.884;9.192;2023-04-01T00:37:29;9.10;99.90
569;DHT22;269;48.884;9.192;2023-04-01T00:39:56;9.10;99.90
569;DHT22;269;48.884;9.192;2023-04-01T00:42:25;9.10;99.90
569;DHT22;269;48.884;9.192;2023-04-01T00:44:53;9.10;99.90
569;DHT22;269;48.884;9.192;2023-04-01T00:47:21;9.20;99.90
569;DHT22;269;48.884;9.192;2023-04-01T00:49:52;9.20;99.90
569;DHT22;269;48.884;9.192;2023-04-01T00:52:22;9.30;99.90
569;DHT22;269;48.884;9.192;2023-04-01T00:54:53;9.30;99.90
569;DHT22;269;48.884;9.192;2023-04-01T00:57:25;9.30;99.90
569;DHT22;269;48.884;9.192;2023-04-01T00:59:54;9.30;99.90
569;DHT22;269;48.884;9.192;2023-04-01T01:02:22;9.60;99.90
569;DHT22;269;48.884;9.192;2023-04-01T01:04:50;9.30;99.90
569;DHT22;269;48.884;9.192;2023-04-01T01:07:26;9.40;99.90
569;DHT22;269;48.884;9.192;2023-04-01T01:10:02;9.40;99.90
569;DHT22;269;48.884;9.192;2023-04-01T01:12:35;9.40;99.90
569;DHT22;269;48.884;9.192;2023-04-01T01:15:12;9.40;99.90
569;DHT22;269;48.884;9.192;2023-04-01T01:17:49;9.40;99.90
569;DHT22;269;48.884;9.192;2023-04-01T01:20:33;9.40;99.90
569;DHT22;269;48.884;9.192;2023-04-01T01:26:16;9.40;99.90
569;DHT22;269;48.884;9.192;2023-04-01T01:28:56;9.40;99.90
569;DHT22;269;48.884;9.192;2023-04-01T01:31:36;9.30;99.90
569;DHT22;269;48.884;9.192;2023-04-01T01:34:13;9.40;99.90
569;DHT22;269;48.884;9.192;2023-04-01T01:36:44;9.40;99.90
569;DHT22;269;48.884;9.192;2023-04-01T01:39:16;9.40;99.90
569;DHT22;269;48.884;9.192;2023-04-01T01:41:45;9.40;99.90
569;DHT22;269;48.884;9.192;2023-04-01T01:44:16;9.40;99.90
569;DHT22;269;48.884;9.192;2023-04-01T01:46:43;9.40;99.90
569;DHT22;269;48.884;9.192;2023-04-01T01:49:12;9.40;99.90
569;DHT22;269;48.884;9.192;2023-04-01T01:51:42;9.40;99.90
569;DHT22;269;48.884;9.192;2023-04-01T01:54:12;9.40;99.90
569;DHT22;269;48.884;9.192;2023-04-01T01:56:41;9.40;99.90
569;DHT22;269;48.884;9.192;2023-04-01T01:59:11;9.40;99.90
569;DHT22;269;48.884;9.192;2023-04-01T02:01:42;9.40;99.90
569;DHT22;269;48.884;9.192;2023-04-01T02:04:13;9.40;99.90
569;DHT22;269;48.884;9.192;2023-04-01T02:06:46;9.60;99.90
569;DHT22;269;48.884;9.192;2023-04-01T02:09:15;9.30;99.90
569;DHT22;269;48.884;9.192;2023-04-01T02:11:45;9.30;99.90
569;DHT22;269;48.884;9.192;2023-04-01T02:14:16;9.30;99.90
569;DHT22;269;48.884;9.192;2023-04-01T02:16:49;9.30;99.90
569;DHT22;269;48.884;9.192;2023-04-01T02:19:18;9.20;99.90
569;DHT22;269;48.884;9.192;2023-04-01T02:21:51;9.20;99.90
569;DHT22;269;48.884;9.192;2023-04-01T02:24:20;9.20;99.90
569;DHT22;269;48.884;9.192;2023-04-01T02:26:50;9.10;99.90
569;DHT22;269;48.884;9.192;2023-04-01T02:29:20;9.10;99.90
569;DHT22;269;48.884;9.192;2023-04-01T02:31:49;9.10;99.90
569;DHT22;269;48.884;9.192;2023-04-01T02:34:17;9.10;99.90
569;DHT22;269;48.884;9.192;2023-04-01T02:36:44;9.10;99.90
569;DHT22;269;48.884;9.192;2023-04-01T02:39:13;9.10;99.90
569;DHT22;269;48.884;9.192;2023-04-01T02:41:41;9.10;99.90
569;DHT22;269;48.884;9.192;2023-04-01T02:44:09;9.10;99.90
569;DHT22;269;48.884;9.192;2023-04-01T02:46:36;9.10;99.90
569;DHT22;269;48.884;9.192;2023-04-01T02:49:03;9.00;99.90
569;DHT22;269;48.884;9.192;2023-04-01T02:51:30;9.00;99.90
569;DHT22;269;48.884;9.192;2023-04-01T02:53:58;9.00;99.90
569;DHT22;269;48.884;9.192;2023-04-01T02:56:26;9.00;99.90
569;DHT22;269;48.884;9.192;2023-04-01T02:58:53;8.90;99.90
569;DHT22;269;48.884;9.192;2023-04-01T03:01:22;8.90;99.90
569;DHT22;269;48.884;9.192;2023-04-01T03:03:49;8.90;99.90
569;DHT22;269;48.884;9.192;2023-04-01T03:06:16;8.80;99.90
569;DHT22;269;48.884;9.192;2023-04-01T03:08:44;8.80;99.90
569;DHT22;269;48.884;9.192;2023-04-01T03:11:11;8.80;99.90
569;DHT22;269;48.884;9.192;2023-04-01T03:13:39;8.80;99.90
569;DHT22;269;48.884;9.192;2023-04-01T03:16:07;8.80;99.90
569;DHT22;269;48.884;9.192;2023-04-01T03:18:34;8.80;99.90
569;DHT22;269;48.884;9.192;2023-04-01T03:21:13;8.80;99.90
569;DHT22;269;48.884;9.192;2023-04-01T03:23:41;8.80;99.90
569;DHT22;269;48.884;9.192;2023-04-01T03:26:08;8.80;99.90
569;DHT22;269;48.884;9.192;2023-04-01T03:28:35;8.80;99.90
569;DHT22;269;48.884;9.192;2023-04-01T03:31:04;8.80;99.90
569;DHT22;269;48.884;9.192;2023-04-01T03:33:32;8.80;99.90
569;DHT22;269;48.884;9.192;2023-04-01T03:35:59;8.80;99.90
569;DHT22;269;48.884;9.192;2023-04-01T03:38:26;8.70;99.90
569;DHT22;269;48.884;9.192;2023-04-01T03:40:53;8.70;99.90
569;DHT22;269;48.884;9.192;2023-04-01T03:43:20;8.70;99.90
569;DHT22;269;48.884;9.192;2023-04-01T03:45:50;8.70;99.90
569;DHT22;269;48.884;9.192;2023-04-01T03:48:18;8.70;99.90
569;DHT22;269;48.884;9.192;2023-04-01T03:50:46;8.70;99.90
569;DHT22;269;48.884;9.192;2023-04-01T03:53:13;8.70;99.90
569;DHT22;269;48.884;9.192;2023-04-01T03:55:41;8.70;99.90
569;DHT22;269;48.884;9.192;2023-04-01T03:58:08;8.60;99.90
569;DHT22;269;48.884;9.192;2023-04-01T04:00:36;8.60;99.90
569;DHT22;269;48.884;9.192;2023-04-01T04:03:03;8.60;99.90
569;DHT22;269;48.884;9.192;2023-04-01T04:05:31;8.60;99.90
569;DHT22;269;48.884;9.192;2023-04-01T04:07:59;8.60;99.90
569;DHT22;269;48.884;9.192;2023-04-01T04:10:26;8.60;99.90
569;DHT22;269;48.884;9.192;2023-04-01T04:12:55;8.60;99.90
569;DHT22;269;48.884;9.192;2023-04-01T04:15:22;8.50;99.90
569;DHT22;269;48.884;9.192;2023-04-01T04:17:49;8.50;99.90
569;DHT22;269;48.884;9.192;2023-04-01T04:20:17;8.50;99.90
569;DHT22;269;48.884;9.192;2023-04-01T04:22:45;8.60;99.90
569;DHT22;269;48.884;9.192;2023-04-01T04:25:12;8.60;99.90
569;DHT22;269;48.884;9.192;2023-04-01T04:27:39;8.60;99.90
569;DHT22;269;48.884;9.192;2023-04-01T04:30:08;8.60;99.90
569;DHT22;269;48.884;9.192;2023-04-01T04:32:35;8.60;99.90
569;DHT22;269;48.884;9.192;2023-04-01T04:35:03;8.60;99.90
569;DHT22;269;48.884;9.192;2023-04-01T04:37:32;8.70;99.90
569;DHT22;269;48.884;9.192;2023-04-01T04:40:00;8.60;99.90
569;DHT22;269;48.884;9.192;2023-04-01T04:42:27;8.70;99.90
569;DHT22;269;48.884;9.192;2023-04-01T04:44:54;8.70;99.90
569;DHT22;269;48.884;9.192;2023-04-01T04:47:21;8.60;99.90
569;DHT22;269;48.884;9.192;2023-04-01T04:49:48;8.70;99.90
569;DHT22;269;48.884;9.192;2023-04-01T04:52:15;8.70;99.90
569;DHT22;269;48.884;9.192;2023-04-01T04:54:42;8.70;99.90
569;DHT22;269;48.884;9.192;2023-04-01T04:57:11;8.70;99.90
569;DHT22;269;48.884;9.192;2023-04-01T04:59:38;8.60;99.90
569;DHT22;269;48.884;9.192;2023-04-01T05:02:05;8.60;99.90
569;DHT22;269;48.884;9.192;2023-04-01T05:04:34;8.60;99.90
569;DHT22;269;48.884;9.192;2023-04-01T05:07:02;8.60;99.90
569;DHT22;269;48.884;9.192;2023-04-01T05:09:29;8.50;99.90
569;DHT22;269;48.884;9.192;2023-04-01T05:11:56;8.50;99.90
569;DHT22;269;48.884;9.192;2023-04-01T05:14:25;8.60;99.90
569;DHT22;269;48.884;9.192;2023-04-01T05:16:52;8.60;99.90
569;DHT22;269;48.884;9.192;2023-04-01T05:19:20;8.60;99.90
569;DHT22;269;48.884;9.192;2023-04-01T05:21:47;8.60;99.90
569;DHT22;269;48.884;9.192;2023-04-01T05:24:14;8.60;99.90
569;DHT22;269;48.884;9.192;2023-04-01T05:26:41;8.50;99.90
569;DHT22;269;48.884;9.192;2023-04-01T05:29:08;8.60;99.90
569;DHT22;269;48.884;9.192;2023-04-01T05:31:36;8.50;99.90
569;DHT22;269;48.884;9.192;2023-04-01T05:34:03;8.60;99.90
569;DHT22;269;48.884;9.192;2023-04-01T05:36:31;8.60;99.90
569;DHT22;269;48.884;9.192;2023-04-01T05:38:58;8.60;99.90
569;DHT22;269;48.884;9.192;2023-04-01T05:41:25;8.60;99.90
569;DHT22;269;48.884;9.192;2023-04-01T05:43:52;8.70;99.90
569;DHT22;269;48.884;9.192;2023-04-01T05:46:19;8.60;99.90
569;DHT22;269;48.884;9.192;2023-04-01T05:48:47;8.70;99.90
569;DHT22;269;48.884;9.192;2023-04-01T05:51:15;8.70;99.90
569;DHT22;269;48.884;9.192;2023-04-01T05:53:42;8.70;99.90
569;DHT22;269;48.884;9.192;2023-04-01T05:56:09;8.70;99.90
569;DHT22;269;48.884;9.192;2023-04-01T05:58:37;8.80;99.90
569;DHT22;269;48.884;9.192;2023-04-01T06:01:06;8.90;99.90
569;DHT22;269;48.884;9.192;2023-04-01T06:03:33;8.90;99.90
569;DHT22;269;48.884;9.192;2023-04-01T06:06:02;9.00;99.90
569;DHT22;269;48.884;9.192;2023-04-01T06:08:31;9.10;99.90
569;DHT22;269;48.884;9.192;2023-04-01T06:11:16;9.10;99.90
569;DHT22;269;48.884;9.192;2023-04-01T06:14:03;9.20;99.90
569;DHT22;269;48.884;9.192;2023-04-01T06:16:41;9.20;99.90
569;DHT22;269;48.884;9.192;2023-04-01T06:19:25;9.30;99.90
569;DHT22;269;48.884;9.192;2023-04-01T06:22:26;9.40;99.90
569;DHT22;269;48.884;9.192;2023-04-01T06:25:10;9.40;99.90
569;DHT22;269;48.884;9.192;2023-04-01T06:27:59;9.80;99.90
569;DHT22;269;48.884;9.192;2023-04-01T06:30:34;9.50;99.90
569;DHT22;269;48.884;9.192;2023-04-01T06:33:20;9.50;99.90
569;DHT22;269;48.884;9.192;2023-04-01T06:36:08;9.50;99.90
569;DHT22;269;48.884;9.192;2023-04-01T06:38:56;9.60;99.90
569;DHT22;269;48.884;9.192;2023-04-01T06:41:57;9.60;99.90
569;DHT22;269;48.884;9.192;2023-04-01T06:44:34;9.60;99.90
569;DHT22;269;48.884;9.192;2023-04-01T06:47:13;9.70;99.90
569;DHT22;269;48.884;9.192;2023-04-01T06:49:49;9.70;99.90
569;DHT22;269;48.884;9.192;2023-04-01T06:52:24;9.60;99.90
569;DHT22;269;48.884;9.192;2023-04-01T06:54:57;9.70;99.90
569;DHT22;269;48.884;9.192;2023-04-01T06:57:31;9.80;99.90
569;DHT22;269;48.884;9.192;2023-04-01T07:00:01;9.70;99.90
569;DHT22;269;48.884;9.192;2023-04-01T07:02:36;9.70;99.90
569;DHT22;269;48.884;9.192;2023-04-01T07:05:06;9.70;99.90
569;DHT22;269;48.884;9.192;2023-04-01T07:07:36;9.70;99.90
569;DHT22;269;48.884;9.192;2023-04-01T07:10:11;9.70;99.90
569;DHT22;269;48.884;9.192;2023-04-01T07:12:43;9.70;99.90
569;DHT22;269;48.884;9.192;2023-04-01T07:15:18;9.70;99.90
569;DHT22;269;48.884;9.192;2023-04-01T07:17:48;9.70;99.90
569;DHT22;269;48.884;9.192;2023-04-01T07:20:22;9.70;99.90
569;DHT22;269;48.884;9.192;2023-04-01T07:22:54;9.70;99.90
569;DHT22;269;48.884;9.192;2023-04-01T07:25:26;9.60;99.90
569;DHT22;269;48.884;9.192;2023-04-01T07:27:59;9.60;99.90
569;DHT22;269;48.884;9.192;2023-04-01T07:30:30;9.60;99.90
569;DHT22;269;48.884;9.192;2023-04-01T07:33:04;9.60;99.90
569;DHT22;269;48.884;9.192;2023-04-01T07:35:37;9.70;99.90
569;DHT22;269;48.884;9.192;2023-04-01T07:38:15;9.60;99.90
569;DHT22;269;48.884;9.192;2023-04-01T07:40:51;9.60;99.90
569;DHT22;269;48.884;9.192;2023-04-01T07:43:36;9.60;99.90
569;DHT22;269;48.884;9.192;2023-04-01T07:46:14;9.60;99.90
569;DHT22;269;48.884;9.192;2023-04-01T07:48:52;9.60;99.90
569;DHT22;269;48.884;9.192;2023-04-01T07:51:27;9.60;99.90
569;DHT22;269;48.884;9.192;2023-04-01T07:54:04;9.60;99.90
569;DHT22;269;48.884;9.192;2023-04-01T07:56:40;9.60;99.90
569;DHT22;269;48.884;9.192;2023-04-01T07:59:17;9.60;99.90
569;DHT22;269;48.884;9.192;2023-04-01T08:01:50;9.70;99.90
569;DHT22;269;48.884;9.192;2023-04-01T08:04:28;9.70;99.90
569;DHT22;269;48.884;9.192;2023-04-01T08:07:06;9.80;99.90
569;DHT22;269;48.884;9.192;2023-04-01T08:09:40;9.80;99.90
569;DHT22;269;48.884;9.192;2023-04-01T08:12:22;9.80;99.90
569;DHT22;269;48.884;9.192;2023-04-01T08:15:02;9.80;99.90
569;DHT22;269;48.884;9.192;2023-04-01T08:17:39;9.80;99.90
569;DHT22;269;48.884;9.192;2023-04-01T08:20:28;9.80;99.90
569;DHT22;269;48.884;9.192;2023-04-01T08:23:01;9.80;99.90
569;DHT22;269;48.884;9.192;2023-04-01T08:25:32;9.80;99.90
569;DHT22;269;48.884;9.192;2023-04-01T08:28:08;9.80;99.90
569;DHT22;269;48.884;9.192;2023-04-01T08:30:41;9.90;99.90
569;DHT22;269;48.884;9.192;2023-04-01T08:33:13;9.80;99.90
569;DHT22;269;48.884;9.192;2023-04-01T08:35:47;9.80;99.90
569;DHT22;269;48.884;9.192;2023-04-01T08:38:19;9.80;99.90
569;DHT22;269;48.884;9.192;2023-04-01T08:40:56;9.90;99.90
569;DHT22;269;48.884;9.192;2023-04-01T08:43:41;9.70;99.90
569;DHT22;269;48.884;9.192;2023-04-01T08:46:24;9.60;99.90
569;DHT22;269;48.884;9.192;2023-04-01T08:49:09;9.40;99.90
569;DHT22;269;48.884;9.192;2023-04-01T08:54:46;9.00;99.90
569;DHT22;269;48.884;9.192;2023-04-01T08:57:21;9.00;99.90
569;DHT22;269;48.884;9.192;2023-04-01T09:00:00;8.90;99.90
569;DHT22;269;48.884;9.192;2023-04-01T09:03:14;8.90;99.90
569;DHT22;269;48.884;9.192;2023-04-01T09:08:57;8.90;99.90
569;DHT22;269;48.884;9.192;2023-04-01T09:11:33;8.90;99.90
569;DHT22;269;48.884;9.192;2023-04-01T09:14:28;8.90;99.90
569;DHT22;269;48.884;9.192;2023-04-01T09:17:32;8.90;99.90
569;DHT22;269;48.884;9.192;2023-04-01T09:20:17;9.00;99.90
569;DHT22;269;48.884;9.192;2023-04-01T09:23:01;9.10;99.90
569;DHT22;269;48.884;9.192;2023-04-01T09:25:57;9.20;99.90
569;DHT22;269;48.884;9.192;2023-04-01T09:28:28;9.30;99.90
569;DHT22;269;48.884;9.192;2023-04-01T09:31:20;9.40;99.90
569;DHT22;269;48.884;9.192;2023-04-01T09:34:32;9.50;99.90
569;DHT22;269;48.884;9.192;2023-04-01T09:37:17;9.60;99.90
569;DHT22;269;48.884;9.192;2023-04-01T09:39:55;9.70;99.90
569;DHT22;269;48.884;9.192;2023-04-01T09:42:41;9.70;99.90
569;DHT22;269;48.884;9.192;2023-04-01T09:45:16;9.70;99.90
569;DHT22;269;48.884;9.192;2023-04-01T09:47:59;9.70;99.90
569;DHT22;269;48.884;9.192;2023-04-01T09:50:46;9.70;99.90
569;DHT22;269;48.884;9.192;2023-04-01T09:53:20;9.70;99.90
569;DHT22;269;48.884;9.192;2023-04-01T09:59:28;9.80;99.90
569;DHT22;269;48.884;9.192;2023-04-01T10:08:26;9.80;99.90
569;DHT22;269;48.884;9.192;2023-04-01T10:14:37;9.90;99.90
569;DHT22;269;48.884;9.192;2023-04-01T10:17:29;9.90;99.90
569;DHT22;269;48.884;9.192;2023-04-01T10:20:15;9.90;99.90
569;DHT22;269;48.884;9.192;2023-04-01T10:23:23;9.90;99.90
569;DHT22;269;48.884;9.192;2023-04-01T10:26:19;9.90;99.90
569;DHT22;269;48.884;9.192;2023-04-01T10:29:16;10.00;99.90
569;DHT22;269;48.884;9.192;2023-04-01T10:35:10;10.00;99.90
569;DHT22;269;48.884;9.192;2023-04-01T10:38:05;10.00;99.90
569;DHT22;269;48.884;9.192;2023-04-01T10:41:22;10.00;99.90
569;DHT22;269;48.884;9.192;2023-04-01T10:44:35;10.10;99.90
569;DHT22;269;48.884;9.192;2023-04-01T10:47:37;10.10;99.90
569;DHT22;269;48.884;9.192;2023-04-01T10:50:21;10.00;99.90
569;DHT22;269;48.884;9.192;2023-04-01T10:53:30;9.90;99.90
569;DHT22;269;48.884;9.192;2023-04-01T10:56:39;9.90;99.90
569;DHT22;269;48.884;9.192;2023-04-01T10:59:28;9.90;99.90
569;DHT22;269;48.884;9.192;2023-04-01T11:02:28;9.90;99.90
569;DHT22;269;48.884;9.192;2023-04-01T11:11:53;10.00;99.90
569;DHT22;269;48.884;9.192;2023-04-01T11:20:35;10.20;99.90
569;DHT22;269;48.884;9.192;2023-04-01T11:23:33;10.30;99.90
569;DHT22;269;48.884;9.192;2023-04-01T11:26:17;10.40;99.90
569;DHT22;269;48.884;9.192;2023-04-01T11:29:03;10.40;99.90
569;DHT22;269;48.884;9.192;2023-04-01T11:31:52;10.50;99.90
569;DHT22;269;48.884;9.192;2023-04-01T11:37:38;10.60;99.90
569;DHT22;269;48.884;9.192;2023-04-01T11:40:20;10.70;99.90
569;DHT22;269;48.884;9.192;2023-04-01T11:42:55;10.70;99.90
569;DHT22;269;48.884;9.192;2023-04-01T11:45:35;10.80;99.90
569;DHT22;269;48.884;9.192;2023-04-01T11:48:23;10.90;99.90
569;DHT22;269;48.884;9.192;2023-04-01T11:51:09;10.90;99.90
569;DHT22;269;48.884;9.192;2023-04-01T11:53:44;10.80;99.90
569;DHT22;269;48.884;9.192;2023-04-01T11:56:34;10.90;99.90
569;DHT22;269;48.884;9.192;2023-04-01T11:59:32;11.00;99.90
569;DHT22;269;48.884;9.192;2023-04-01T12:02:13;11.00;99.90
569;DHT22;269;48.884;9.192;2023-04-01T12:07:58;10.90;99.90
569;DHT22;269;48.884;9.192;2023-04-01T12:10:36;10.80;99.90
569;DHT22;269;48.884;9.192;2023-04-01T12:13:12;10.70;99.90
569;DHT22;269;48.884;9.192;2023-04-01T12:15:52;10.70;99.90
569;DHT22;269;48.884;9.192;2023-04-01T12:18:27;10.80;99.90
569;DHT22;269;48.884;9.192;2023-04-01T12:21:00;10.70;99.90
569;DHT22;269;48.884;9.192;2023-04-01T12:23:47;10.80;99.90
569;DHT22;269;48.884;9.192;2023-04-01T12:26:41;10.90;99.90
569;DHT22;269;48.884;9.192;2023-04-01T12:29:30;11.00;99.90
569;DHT22;269;48.884;9.192;2023-04-01T12:32:12;11.00;99.90
569;DHT22;269;48.884;9.192;2023-04-01T12:34:55;11.00;99.90
569;DHT22;269;48.884;9.192;2023-04-01T12:37:32;11.00;99.90
569;DHT22;269;48.884;9.192;2023-04-01T12:40:18;11.00;99.90
569;DHT22;269;48.884;9.192;2023-04-01T12:42:59;11.10;99.90
569;DHT22;269;48.884;9.192;2023-04-01T12:45:31;11.10;99.90
569;DHT22;269;48.884;9.192;2023-04-01T12:48:37;11.10;99.90
569;DHT22;269;48.884;9.192;2023-04-01T12:51:21;11.10;99.90
569;DHT22;269;48.884;9.192;2023-04-01T12:54:21;11.30;99.90
569;DHT22;269;48.884;9.192;2023-04-01T12:56:58;11.10;99.90
569;DHT22;269;48.884;9.192;2023-04-01T12:59:41;11.10;99.90
569;DHT22;269;48.884;9.192;2023-04-01T13:02:29;11.40;99.90
569;DHT22;269;48.884;9.192;2023-04-01T13:05:25;11.10;99.90
569;DHT22;269;48.884;9.192;2023-04-01T13:08:23;11.10;99.90
569;DHT22;269;48.884;9.192;2023-04-01T13:11:13;11.00;99.90
569;DHT22;269;48.884;9.192;2023-04-01T13:16:39;10.90;99.90
569;DHT22;269;48.884;9.192;2023-04-01T13:19:15;10.90;99.90
569;DHT22;269;48.884;9.192;2023-04-01T13:21:51;10.80;99.90
569;DHT22;269;48.884;9.192;2023-04-01T13:24:31;10.60;99.90
569;DHT22;269;48.884;9.192;2023-04-01T13:27:09;10.50;99.90
569;DHT22;269;48.884;9.192;2023-04-01T13:29:43;10.30;99.90
569;DHT22;269;48.884;9.192;2023-04-01T13:32:28;10.20;99.90
569;DHT22;269;48.884;9.192;2023-04-01T13:35:06;10.20;99.90
569;DHT22;269;48.884;9.192;2023-04-01T13:37:51;10.30;99.90
569;DHT22;269;48.884;9.192;2023-04-01T13:40:33;10.40;99.90
569;DHT22;269;48.884;9.192;2023-04-01T13:43:07;10.40;99.90
569;DHT22;269;48.884;9.192;2023-04-01T13:51:40;10.60;99.90
569;DHT22;269;48.884;9.192;2023-04-01T13:57:52;10.70;99.90
569;DHT22;269;48.884;9.192;2023-04-01T14:00:35;10.60;99.90
569;DHT22;269;48.884;9.192;2023-04-01T14:03:26;10.60;99.90
569;DHT22;269;48.884;9.192;2023-04-01T14:06:05;10.40;99.90
569;DHT22;269;48.884;9.192;2023-04-01T14:08:42;10.40;99.90
569;DHT22;269;48.884;9.192;2023-04-01T14:11:19;10.40;99.90
569;DHT22;269;48.884;9.192;2023-04-01T14:14:02;10.50;99.90
569;DHT22;269;48.884;9.192;2023-04-01T14:17:05;10.50;99.90
569;DHT22;269;48.884;9.192;2023-04-01T14:19:58;10.60;99.90
569;DHT22;269;48.884;9.192;2023-04-01T14:22:33;10.60;99.90
569;DHT22;269;48.884;9.192;2023-04-01T14:25:28;10.60;99.90
569;DHT22;269;48.884;9.192;2023-04-01T14:28:07;10.70;99.90
569;DHT22;269;48.884;9.192;2023-04-01T14:30:55;10.70;99.90
569;DHT22;269;48.884;9.192;2023-04-01T14:33:37;10.60;99.90
569;DHT22;269;48.884;9.192;2023-04-01T14:36:25;10.50;99.90
569;DHT22;269;48.884;9.192;2023-04-01T14:39:04;10.40;99.90
569;DHT22;269;48.884;9.192;2023-04-01T14:41:42;10.20;99.90
569;DHT22;269;48.884;9.192;2023-04-01T14:47:32;10.00;99.90
569;DHT22;269;48.884;9.192;2023-04-01T14:50:08;10.00;99.90
569;DHT22;269;48.884;9.192;2023-04-01T14:52:41;10.00;99.90
569;DHT22;269;48.884;9.192;2023-04-01T14:55:21;10.00;99.90
569;DHT22;269;48.884;9.192;2023-04-01T14:58:04;10.10;99.90
569;DHT22;269;48.884;9.192;2023-04-01T15:00:47;10.10;99.90
569;DHT22;269;48.884;9.192;2023-04-01T15:03:20;10.10;99.90
569;DHT22;269;48.884;9.192;2023-04-01T15:05:51;10.20;99.90
569;DHT22;269;48.884;9.192;2023-04-01T15:08:21;10.20;99.90
569;DHT22;269;48.884;9.192;2023-04-01T15:11:20;10.30;99.90
569;DHT22;269;48.884;9.192;2023-04-01T15:14:06;10.40;99.90
569;DHT22;269;48.884;9.192;2023-04-01T15:16:44;10.50;99.90
569;DHT22;269;48.884;9.192;2023-04-01T15:19:23;10.60;99.90
569;DHT22;269;48.884;9.192;2023-04-01T15:22:05;10.60;99.90
569;DHT22;269;48.884;9.192;2023-04-01T15:24:48;10.60;99.90
569;DHT22;269;48.884;9.192;2023-04-01T15:27:27;10.70;99.90
569;DHT22;269;48.884;9.192;2023-04-01T15:30:21;10.70;99.90
569;DHT22;269;48.884;9.192;2023-04-01T15:33:01;10.70;99.90
569;DHT22;269;48.884;9.192;2023-04-01T15:35:43;10.70;99.90
569;DHT22;269;48.884;9.192;2023-04-01T15:38:24;10.80;99.90
569;DHT22;269;48.884;9.192;2023-04-01T15:40:58;10.80;99.90
569;DHT22;269;48.884;9.192;2023-04-01T15:43:36;10.80;99.90
569;DHT22;269;48.884;9.192;2023-04-01T15:46:19;10.80;99.90
569;DHT22;269;48.884;9.192;2023-04-01T15:49:01;10.70;99.90
569;DHT22;269;48.884;9.192;2023-04-01T15:55:12;10.80;99.90
569;DHT22;269;48.884;9.192;2023-04-01T15:57:50;10.80;99.90
569;DHT22;269;48.884;9.192;2023-04-01T16:00:23;10.30;99.90
569;DHT22;269;48.884;9.192;2023-04-01T16:03:14;10.70;99.90
569;DHT22;269;48.884;9.192;2023-04-01T16:05:53;10.70;99.90
569;DHT22;269;48.884;9.192;2023-04-01T16:08:43;10.70;99.90
569;DHT22;269;48.884;9.192;2023-04-01T16:11:20;10.60;99.90
569;DHT22;269;48.884;9.192;2023-04-01T16:13:54;10.60;99.90
569;DHT22;269;48.884;9.192;2023-04-01T16:16:33;10.60;99.90
569;DHT22;269;48.884;9.192;2023-04-01T16:22:05;10.50;99.90
569;DHT22;269;48.884;9.192;2023-04-01T16:24:41;10.50;99.90
569;DHT22;269;48.884;9.192;2023-04-01T16:27:14;10.50;99.90
569;DHT22;269;48.884;9.192;2023-04-01T16:29:47;10.50;99.90
569;DHT22;269;48.884;9.192;2023-04-01T16:32:22;10.50;99.90
569;DHT22;269;48.884;9.192;2023-04-01T16:35:03;10.50;99.90
569;DHT22;269;48.884;9.192;2023-04-01T16:37:34;10.50;99.90
569;DHT22;269;48.884;9.192;2023-04-01T16:40:13;10.50;99.90
569;DHT22;269;48.884;9.192;2023-04-01T16:42:48;10.60;99.90
569;DHT22;269;48.884;9.192;2023-04-01T16:45:24;10.50;99.90
569;DHT22;269;48.884;9.192;2023-04-01T16:47:55;10.60;99.90
569;DHT22;269;48.884;9.192;2023-04-01T16:50:24;10.50;99.90
569;DHT22;269;48.884;9.192;2023-04-01T16:53:02;10.60;99.90
569;DHT22;269;48.884;9.192;2023-04-01T16:55:47;10.60;99.90
569;DHT22;269;48.884;9.192;2023-04-01T16:58:21;10.50;99.90
569;DHT22;269;48.884;9.192;2023-04-01T17:00:51;10.50;99.90
569;DHT22;269;48.884;9.192;2023-04-01T17:03:23;10.60;99.90
569;DHT22;269;48.884;9.192;2023-04-01T17:06:08;10.60;99.90
569;DHT22;269;48.884;9.192;2023-04-01T17:08:50;10.50;99.90
569;DHT22;269;48.884;9.192;2023-04-01T17:11:24;10.50;99.90
569;DHT22;269;48.884;9.192;2023-04-01T17:14:01;10.60;99.90
569;DHT22;269;48.884;9.192;2023-04-01T17:16:46;10.60;99.90
569;DHT22;269;48.884;9.192;2023-04-01T17:19:32;10.60;99.90
569;DHT22;269;48.884;9.192;2023-04-01T17:22:11;10.50;99.90
569;DHT22;269;48.884;9.192;2023-04-01T17:24:49;10.50;99.90
569;DHT22;269;48.884;9.192;2023-04-01T17:27:27;10.50;99.90
569;DHT22;269;48.884;9.192;2023-04-01T17:30:06;10.50;99.90
569;DHT22;269;48.884;9.192;2023-04-01T17:32:46;10.50;99.90
569;DHT22;269;48.884;9.192;2023-04-01T17:35:20;10.50;99.90
569;DHT22;269;48.884;9.192;2023-04-01T17:37:57;10.50;99.90
569;DHT22;269;48.884;9.192;2023-04-01T17:40:41;10.50;99.90
569;DHT22;269;48.884;9.192;2023-04-01T17:43:22;10.50;99.90
569;DHT22;269;48.884;9.192;2023-04-01T17:45:54;10.50;99.90
569;DHT22;269;48.884;9.192;2023-04-01T17:48:29;10.50;99.90
569;DHT22;269;48.884;9.192;2023-04-01T17:51:12;10.50;99.90
569;DHT22;269;48.884;9.192;2023-04-01T17:53:45;10.50;99.90
569;DHT22;269;48.884;9.192;2023-04-01T17:56:19;10.40;99.90
569;DHT22;269;48.884;9.192;2023-04-01T17:58:58;10.40;99.90
569;DHT22;269;48.884;9.192;2023-04-01T18:01:34;10.30;99.90
569;DHT22;269;48.884;9.192;2023-04-01T18:07:18;10.20;99.90
569;DHT22;269;48.884;9.192;2023-04-01T18:09:59;10.20;99.90
569;DHT22;269;48.884;9.192;2023-04-01T18:12:34;10.10;99.90
569;DHT22;269;48.884;9.192;2023-04-01T18:15:13;10.10;99.90
569;DHT22;269;48.884;9.192;2023-04-01T18:17:57;10.00;99.90
569;DHT22;269;48.884;9.192;2023-04-01T18:20:33;10.00;99.90
569;DHT22;269;48.884;9.192;2023-04-01T18:23:04;10.00;99.90
569;DHT22;269;48.884;9.192;2023-04-01T18:25:38;10.00;99.90
569;DHT22;269;48.884;9.192;2023-04-01T18:28:21;10.00;99.90
569;DHT22;269;48.884;9.192;2023-04-01T18:30:55;10.00;99.90
569;DHT22;269;48.884;9.192;2023-04-01T18:33:28;10.00;99.90
569;DHT22;269;48.884;9.192;2023-04-01T18:36:08;9.90;99.90
569;DHT22;269;48.884;9.192;2023-04-01T18:38:37;9.90;99.90
569;DHT22;269;48.884;9.192;2023-04-01T18:41:13;9.90;99.90
569;DHT22;269;48.884;9.192;2023-04-01T18:43:47;9.90;99.90
569;DHT22;269;48.884;9.192;2023-04-01T18:46:27;9.80;99.90
569;DHT22;269;48.884;9.192;2023-04-01T18:49:05;9.80;99.90
569;DHT22;269;48.884;9.192;2023-04-01T18:51:39;9.80;99.90
569;DHT22;269;48.884;9.192;2023-04-01T18:54:13;9.70;99.90
569;DHT22;269;48.884;9.192;2023-04-01T18:56:45;9.70;99.90